Time;durP1;ratioP1;P1;durP2;ratioP2;P2;SDS_P1;SDS_P2;PMS_P1;PMS_P2;Temp;Humidity;BMP_temperature;BMP_pressure;BME280_temperature;BME280_humidity;BME280_pressure;Samples;Min_cycle;Max_cycle;Signal;HPM_P1;HPM_P2
2021/07/20 00:00:18;;;;;;;13.03;8.80;;;20.30;99.90;;;;;;4794539;29;20239;-77
2021/07/20 00:02:48;;;;;;;14.50;9.67;;;20.30;99.90;;;;;;4808417;29;20468;-77
2021/07/20 00:05:16;;;;;;;13.37;9.57;;;20.30;99.90;;;;;;4809141;29;20472;-77
2021/07/20 00:07:42;;;;;;;14.20;10.20;;;20.20;99.90;;;;;;4825134;29;20473;-77
2021/07/20 00:10:14;;;;;;;12.67;9.00;;;20.00;99.90;;;;;;4824115;29;21352;-78
2021/07/20 00:12:40;;;;;;;14.23;8.67;;;20.00;99.90;;;;;;4806495;29;20469;-78
2021/07/20 00:15:09;;;;;;;11.00;8.20;;;20.00;99.90;;;;;;4810243;29;20473;-77
2021/07/20 00:17:35;;;;;;;14.10;8.60;;;20.00;99.90;;;;;;4825640;29;20526;-77
2021/07/20 00:20:04;;;;;;;14.00;9.13;;;20.00;99.90;;;;;;4821466;29;20476;-77
2021/07/20 00:22:29;;;;;;;8.10;6.80;;;20.00;99.90;;;;;;4792285;29;20488;-77
2021/07/20 00:24:55;;;;;;;12.13;8.83;;;19.90;99.90;;;;;;4823993;29;20479;-78
2021/07/20 00:27:21;;;;;;;18.67;9.63;;;20.00;99.90;;;;;;4792436;29;20251;-77
2021/07/20 00:29:46;;;;;;;15.30;8.07;;;19.90;99.90;;;;;;4792691;29;20623;-77
2021/07/20 00:32:12;;;;;;;9.17;7.60;;;19.90;99.90;;;;;;4806308;29;20267;-78
2021/07/20 00:34:40;;;;;;;13.30;9.73;;;19.90;99.90;;;;;;4806879;29;20256;-77
2021/07/20 00:37:06;;;;;;;10.67;7.93;;;19.90;99.90;;;;;;4809161;29;20227;-77
2021/07/20 00:39:32;;;;;;;13.53;8.60;;;19.90;99.90;;;;;;4794923;29;20468;-77
2021/07/20 00:41:58;;;;;;;14.67;10.40;;;19.90;99.90;;;;;;4794680;29;20544;-77
2021/07/20 00:44:25;;;;;;;14.13;8.90;;;19.90;99.90;;;;;;4809910;29;20485;-78
2021/07/20 00:46:51;;;;;;;12.90;9.30;;;19.80;99.90;;;;;;4809833;29;20460;-77
2021/07/20 00:49:17;;;;;;;15.67;8.27;;;19.80;99.90;;;;;;4794413;29;20786;-77
2021/07/20 00:51:43;;;;;;;12.70;8.97;;;19.70;99.90;;;;;;4797527;29;20227;-77
2021/07/20 00:54:11;;;;;;;12.17;8.57;;;19.70;99.90;;;;;;4823403;29;20238;-77
2021/07/20 00:56:37;;;;;;;13.57;8.50;;;19.60;99.90;;;;;;4802025;29;20581;-77
2021/07/20 00:59:03;;;;;;;10.50;8.37;;;19.60;99.90;;;;;;4823985;29;21021;-77
2021/07/20 01:01:30;;;;;;;10.57;8.90;;;19.60;99.90;;;;;;4820393;29;20499;-77
2021/07/20 01:03:57;;;;;;;12.37;8.40;;;19.60;99.90;;;;;;4823953;29;20468;-77
2021/07/20 01:06:28;;;;;;;11.33;8.30;;;19.60;99.90;;;;;;4810293;29;20464;-77
2021/07/20 01:08:55;;;;;;;11.47;7.83;;;19.60;99.90;;;;;;4824115;29;20592;-77
2021/07/20 01:11:25;;;;;;;10.70;8.23;;;19.60;99.90;;;;;;4822677;29;20480;-77
2021/07/20 01:13:53;;;;;;;13.00;9.00;;;19.50;99.90;;;;;;4805952;29;20473;-77
2021/07/20 01:16:21;;;;;;;12.30;8.43;;;19.50;99.90;;;;;;4800542;29;20472;-77
2021/07/20 01:18:49;;;;;;;17.20;8.67;;;19.50;99.90;;;;;;4820413;29;20467;-77
2021/07/20 01:21:15;;;;;;;14.73;8.83;;;19.50;99.90;;;;;;4801881;29;20476;-77
2021/07/20 01:23:47;;;;;;;10.10;8.53;;;19.40;99.90;;;;;;4808371;29;20559;-78
2021/07/20 01:26:18;;;;;;;10.77;8.10;;;19.40;99.90;;;;;;4809929;29;20942;-77
2021/07/20 01:28:48;;;;;;;10.17;7.67;;;19.50;99.90;;;;;;4808544;29;20471;-77
2021/07/20 01:31:18;;;;;;;13.03;8.47;;;19.40;99.90;;;;;;4808829;29;20487;-76
2021/07/20 01:33:49;;;;;;;10.67;7.67;;;19.40;99.90;;;;;;4792411;29;20536;-77
2021/07/20 01:36:21;;;;;;;14.83;9.03;;;19.40;99.90;;;;;;4824031;29;20471;-77
2021/07/20 01:38:51;;;;;;;12.80;8.10;;;19.40;99.90;;;;;;4806574;29;20457;-77
2021/07/20 01:41:18;;;;;;;13.83;10.30;;;19.40;99.90;;;;;;4794423;29;20468;-77
2021/07/20 01:43:56;;;;;;;11.53;7.77;;;19.40;99.90;;;;;;4824014;29;20468;-77
2021/07/20 01:46:26;;;;;;;10.10;8.40;;;19.30;99.90;;;;;;4824069;29;20551;-77
2021/07/20 01:48:55;;;;;;;13.27;9.23;;;19.30;99.90;;;;;;4822490;29;20467;-77
2021/07/20 01:51:24;;;;;;;10.20;7.67;;;19.30;99.90;;;;;;4805180;29;20481;-77
2021/07/20 01:53:52;;;;;;;12.27;8.63;;;19.20;99.90;;;;;;4798643;29;20903;-77
2021/07/20 01:56:20;;;;;;;11.40;7.90;;;19.20;99.90;;;;;;4798293;29;20452;-77
2021/07/20 01:58:46;;;;;;;12.27;7.73;;;19.20;99.90;;;;;;4801699;29;20460;-77
2021/07/20 02:01:34;;;;;;;15.00;8.50;;;19.20;99.90;;;;;;4807773;29;20467;-77
2021/07/20 02:09:48;;;;;;;14.30;8.40;;;19.10;99.90;;;;;;4823706;29;20555;-77
2021/07/20 02:12:17;;;;;;;10.73;7.70;;;19.10;99.90;;;;;;4807547;29;20473;-77
2021/07/20 02:15:05;;;;;;;11.50;8.50;;;19.10;99.90;;;;;;4825317;29;20491;-77
2021/07/20 02:17:50;;;;;;;13.50;7.47;;;19.10;99.90;;;;;;4810431;29;20500;-77
2021/07/20 02:20:20;;;;;;;9.93;8.10;;;19.00;99.90;;;;;;4806959;29;20579;-77
2021/07/20 02:22:54;;;;;;;12.70;8.87;;;19.00;99.90;;;;;;4805580;29;20480;-77
2021/07/20 02:25:24;;;;;;;13.60;7.97;;;18.90;99.90;;;;;;4793337;29;20491;-77
2021/07/20 02:27:51;;;;;;;15.33;8.83;;;19.00;99.90;;;;;;4805779;29;20484;-80
2021/07/20 02:30:32;;;;;;;11.30;8.30;;;18.90;99.90;;;;;;4808912;29;20461;-80
2021/07/20 02:33:02;;;;;;;12.37;8.60;;;18.90;99.90;;;;;;4821215;29;20465;-80
2021/07/20 02:35:30;;;;;;;12.07;8.13;;;18.90;99.90;;;;;;4822014;29;20484;-79
2021/07/20 02:38:00;;;;;;;12.93;8.40;;;18.80;99.90;;;;;;4791354;29;20525;-80
2021/07/20 02:40:29;;;;;;;12.43;8.40;;;18.80;99.90;;;;;;4792608;29;20461;-79
2021/07/20 02:43:00;;;;;;;10.87;8.00;;;18.80;99.90;;;;;;4806306;29;20486;-79
2021/07/20 02:45:34;;;;;;;13.00;9.10;;;18.80;99.90;;;;;;4812210;29;20464;-79
2021/07/20 02:48:03;;;;;;;13.20;8.33;;;18.70;99.90;;;;;;4824029;29;20979;-80
2021/07/20 02:50:31;;;;;;;10.60;7.53;;;18.70;99.90;;;;;;4799571;29;20464;-79
2021/07/20 02:53:12;;;;;;;9.80;7.60;;;18.70;99.90;;;;;;4821641;29;20479;-79
2021/07/20 02:55:50;;;;;;;16.00;8.80;;;18.60;99.90;;;;;;4824457;29;20460;-80
2021/07/20 02:58:17;;;;;;;13.10;7.93;;;18.60;99.90;;;;;;4809770;29;20476;-79
2021/07/20 03:00:45;;;;;;;9.27;7.53;;;18.40;99.90;;;;;;4810268;29;20472;-79
2021/07/20 03:03:12;;;;;;;11.67;8.30;;;18.30;99.90;;;;;;4823548;29;20851;-79
2021/07/20 03:05:47;;;;;;;12.17;8.33;;;18.30;99.90;;;;;;4825046;29;20516;-79
2021/07/20 03:08:17;;;;;;;14.37;9.43;;;18.30;99.90;;;;;;4809169;29;20475;-79
2021/07/20 03:10:56;;;;;;;14.83;8.83;;;18.30;99.90;;;;;;4810430;29;20468;-80
2021/07/20 03:13:26;;;;;;;12.90;9.07;;;18.30;99.90;;;;;;4824516;29;20564;-79
2021/07/20 03:15:53;;;;;;;13.40;9.57;;;18.30;99.90;;;;;;4824664;29;20469;-79
2021/07/20 03:18:27;;;;;;;12.40;8.60;;;18.10;99.90;;;;;;4809312;29;20541;-79
2021/07/20 03:20:54;;;;;;;11.77;8.20;;;18.10;99.90;;;;;;4823363;29;20487;-79
2021/07/20 03:23:22;;;;;;;11.80;8.50;;;18.20;99.90;;;;;;4819401;29;20552;-79
2021/07/20 03:25:51;;;;;;;12.53;8.40;;;18.20;99.90;;;;;;4803912;29;20500;-79
2021/07/20 03:28:18;;;;;;;12.57;7.90;;;18.20;99.90;;;;;;4807406;29;20996;-79
2021/07/20 03:30:45;;;;;;;10.53;7.47;;;18.30;99.90;;;;;;4816268;29;20465;-79
2021/07/20 03:33:15;;;;;;;11.53;8.30;;;18.20;99.90;;;;;;4791798;29;21038;-79
2021/07/20 03:35:56;;;;;;;13.27;7.70;;;18.20;99.90;;;;;;4815700;29;20479;-79
2021/07/20 03:38:23;;;;;;;13.90;7.77;;;18.20;99.90;;;;;;4825056;29;20468;-79
2021/07/20 03:40:58;;;;;;;14.00;8.40;;;18.20;99.90;;;;;;4823602;29;20856;-79
2021/07/20 03:43:27;;;;;;;12.10;8.07;;;18.20;99.90;;;;;;4824191;29;20541;-80
2021/07/20 03:45:55;;;;;;;13.40;8.70;;;18.10;99.90;;;;;;4823888;29;20464;-79
2021/07/20 03:48:22;;;;;;;13.40;8.27;;;18.10;99.90;;;;;;4805202;29;20461;-79
2021/07/20 03:51:00;;;;;;;11.47;7.87;;;18.00;99.90;;;;;;4806821;29;20482;-79
2021/07/20 03:53:28;;;;;;;8.47;6.83;;;17.90;99.90;;;;;;4808137;29;20532;-79
2021/07/20 03:55:59;;;;;;;14.80;9.07;;;17.80;99.90;;;;;;4808676;29;20495;-79
2021/07/20 03:58:27;;;;;;;15.17;9.20;;;17.80;99.90;;;;;;4810848;29;20457;-79
2021/07/20 04:01:00;;;;;;;12.97;8.27;;;17.80;99.90;;;;;;4825529;29;20457;-79
2021/07/20 04:03:31;;;;;;;12.53;8.13;;;17.80;99.90;;;;;;4826131;29;20459;-79
2021/07/20 04:06:05;;;;;;;11.90;8.57;;;17.90;99.90;;;;;;4820120;29;20451;-79
2021/07/20 04:08:33;;;;;;;9.70;7.23;;;17.90;99.90;;;;;;4825965;29;20850;-79
2021/07/20 04:11:01;;;;;;;10.83;7.77;;;17.90;99.90;;;;;;4825906;29;20449;-79
2021/07/20 04:13:35;;;;;;;12.40;8.30;;;17.90;99.90;;;;;;4825339;29;20483;-79
2021/07/20 04:16:16;;;;;;;12.90;9.00;;;17.90;99.90;;;;;;4808551;29;21009;-80
2021/07/20 04:18:42;;;;;;;14.07;8.90;;;17.90;99.90;;;;;;4823023;29;20449;-79
2021/07/20 04:21:17;;;;;;;13.70;8.53;;;17.90;99.90;;;;;;4810500;29;20461;-79
2021/07/20 04:23:44;;;;;;;11.70;8.30;;;17.80;99.90;;;;;;4813401;29;20532;-79
2021/07/20 04:26:21;;;;;;;11.23;7.47;;;17.80;99.90;;;;;;4812418;29;20456;-79
2021/07/20 04:28:48;;;;;;;11.50;7.70;;;17.80;99.90;;;;;;4810159;29;20556;-80
2021/07/20 04:31:19;;;;;;;11.13;7.60;;;17.90;99.90;;;;;;4781588;29;20479;-79
2021/07/20 04:33:49;;;;;;;12.53;7.97;;;17.80;99.90;;;;;;4809567;29;20981;-79
2021/07/20 04:36:35;;;;;;;13.30;9.03;;;17.80;99.90;;;;;;4828415;29;20518;-79
2021/07/20 04:39:16;;;;;;;13.10;8.33;;;17.80;99.90;;;;;;4812335;29;20470;-79
2021/07/20 04:41:43;;;;;;;13.10;7.63;;;17.80;99.90;;;;;;4826057;29;20492;-79
2021/07/20 04:44:09;;;;;;;13.40;8.80;;;17.80;99.90;;;;;;4807103;29;20450;-79
2021/07/20 04:46:47;;;;;;;10.90;8.20;;;17.80;99.90;;;;;;4812381;29;20464;-79
2021/07/20 04:49:15;;;;;;;10.80;7.30;;;17.80;99.90;;;;;;4810338;29;20982;-79
2021/07/20 04:51:43;;;;;;;9.70;6.73;;;17.80;99.90;;;;;;4780514;29;20465;-79
2021/07/20 04:54:13;;;;;;;15.53;8.00;;;17.80;99.90;;;;;;4824976;29;20468;-79
2021/07/20 04:56:39;;;;;;;16.20;9.43;;;17.80;99.90;;;;;;4825111;29;20456;-79
2021/07/20 04:59:05;;;;;;;12.57;8.50;;;17.80;99.90;;;;;;4791843;29;20843;-79
2021/07/20 05:01:33;;;;;;;13.73;8.33;;;17.80;99.90;;;;;;4809582;29;20231;-79
2021/07/20 05:04:04;;;;;;;11.40;7.23;;;17.80;99.90;;;;;;4809610;29;20472;-79
2021/07/20 05:06:46;;;;;;;10.30;7.07;;;17.80;99.90;;;;;;4825591;29;20460;-79
2021/07/20 05:09:13;;;;;;;12.77;8.20;;;17.80;99.90;;;;;;4824011;29;20461;-79
2021/07/20 05:11:39;;;;;;;13.60;8.80;;;17.80;99.90;;;;;;4795609;29;20460;-79
2021/07/20 05:14:07;;;;;;;15.00;8.23;;;17.80;99.90;;;;;;4813588;29;20473;-79
2021/07/20 05:16:34;;;;;;;13.77;8.57;;;17.80;99.90;;;;;;4795914;29;20865;-79
2021/07/20 05:19:04;;;;;;;12.60;7.77;;;17.80;99.90;;;;;;4825669;29;20866;-79
2021/07/20 05:22:01;;;;;;;11.37;8.10;;;17.80;99.90;;;;;;4809109;29;20894;-79
2021/07/20 05:24:40;;;;;;;11.43;7.00;;;17.90;99.90;;;;;;4825185;29;20463;-80
2021/07/20 05:27:09;;;;;;;13.80;7.20;;;17.90;99.90;;;;;;4809100;29;20515;-79
2021/07/20 05:29:36;;;;;;;13.37;8.77;;;17.90;99.90;;;;;;4804262;29;20463;-79
2021/07/20 05:32:17;;;;;;;13.13;7.63;;;17.90;99.90;;;;;;4806716;29;20463;-79
2021/07/20 05:34:53;;;;;;;12.30;7.87;;;17.90;99.90;;;;;;4792306;29;20448;-79
2021/07/20 05:37:20;;;;;;;14.10;8.93;;;17.90;99.90;;;;;;4823687;29;20522;-80
2021/07/20 05:39:50;;;;;;;12.27;8.17;;;18.00;99.90;;;;;;4823710;29;20531;-79
2021/07/20 05:42:36;;;;;;;14.50;8.60;;;18.00;99.90;;;;;;4822884;29;20544;-79
2021/07/20 05:45:10;;;;;;;11.27;8.00;;;18.00;99.90;;;;;;4808436;29;20461;-79
2021/07/20 05:47:45;;;;;;;16.10;9.07;;;18.00;99.90;;;;;;4797005;29;20465;-79
2021/07/20 05:50:13;;;;;;;11.50;8.47;;;18.00;99.90;;;;;;4804285;29;20471;-80
2021/07/20 05:52:59;;;;;;;15.60;9.30;;;18.00;99.90;;;;;;4825445;29;20510;-79
2021/07/20 05:55:31;;;;;;;8.40;7.17;;;18.00;99.90;;;;;;4824268;29;20460;-79
2021/07/20 05:57:58;;;;;;;12.37;8.27;;;18.00;99.90;;;;;;4793830;29;20472;-79
2021/07/20 06:00:28;;;;;;;13.23;8.50;;;18.00;99.90;;;;;;4790531;29;20949;-79
2021/07/20 06:03:15;;;;;;;12.47;8.00;;;18.00;99.90;;;;;;4796511;29;20465;-79
2021/07/20 06:05:51;;;;;;;15.03;9.53;;;18.10;99.90;;;;;;4807817;29;20846;-78
2021/07/20 06:08:19;;;;;;;12.37;8.60;;;18.10;99.90;;;;;;4805279;29;20486;-78
2021/07/20 06:10:47;;;;;;;10.90;8.07;;;18.20;99.90;;;;;;4792512;29;20460;-79
2021/07/20 06:13:15;;;;;;;14.07;8.50;;;18.20;99.90;;;;;;4800228;29;20501;-79
2021/07/20 06:15:45;;;;;;;14.67;8.33;;;18.20;99.90;;;;;;4805750;29;20468;-79
2021/07/20 06:18:11;;;;;;;11.60;8.77;;;18.30;99.90;;;;;;4804903;29;20453;-79
2021/07/20 06:20:37;;;;;;;9.50;7.43;;;18.30;99.90;;;;;;4775077;29;20948;-79
2021/07/20 06:23:04;;;;;;;14.33;8.77;;;18.40;99.90;;;;;;4789209;29;20247;-79
2021/07/20 06:25:34;;;;;;;15.77;9.17;;;18.40;99.90;;;;;;4820911;29;20464;-79
2021/07/20 06:28:05;;;;;;;12.57;8.00;;;18.50;99.90;;;;;;4805696;29;20488;-80
2021/07/20 06:30:31;;;;;;;10.17;7.40;;;18.50;99.90;;;;;;4822947;29;20522;-79
2021/07/20 06:32:57;;;;;;;12.70;8.23;;;18.50;99.90;;;;;;4822937;29;20495;-79
2021/07/20 06:35:23;;;;;;;11.20;7.57;;;18.60;99.90;;;;;;4823156;29;20228;-79
2021/07/20 06:37:49;;;;;;;16.37;8.50;;;18.60;99.90;;;;;;4810178;29;20482;-79
2021/07/20 06:40:18;;;;;;;12.50;9.10;;;18.70;99.90;;;;;;4792284;29;20529;-79
2021/07/20 06:42:46;;;;;;;13.20;8.50;;;18.70;99.90;;;;;;4808270;29;20877;-80
2021/07/20 06:45:15;;;;;;;12.37;8.13;;;18.80;99.90;;;;;;4808368;29;20468;-78
2021/07/20 06:47:45;;;;;;;10.93;7.87;;;18.80;99.90;;;;;;4823374;29;20464;-79
2021/07/20 06:50:11;;;;;;;13.00;8.63;;;18.80;99.90;;;;;;4822710;29;21195;-79
2021/07/20 06:52:40;;;;;;;10.97;8.23;;;18.90;99.90;;;;;;4824053;29;20460;-79
2021/07/20 06:55:07;;;;;;;13.70;8.17;;;18.90;99.90;;;;;;4805495;29;20810;-80
2021/07/20 06:57:35;;;;;;;14.00;9.70;;;19.00;99.90;;;;;;4823747;29;20471;-79
2021/07/20 07:00:03;;;;;;;12.17;8.00;;;19.00;99.90;;;;;;4822313;29;20460;-79
2021/07/20 07:02:30;;;;;;;13.37;8.40;;;19.10;99.90;;;;;;4811167;29;20469;-79
2021/07/20 07:05:04;;;;;;;11.50;7.40;;;19.10;99.90;;;;;;4821816;29;20925;-79
2021/07/20 07:07:31;;;;;;;11.37;7.60;;;19.10;99.90;;;;;;4822851;29;20976;-79
2021/07/20 07:10:01;;;;;;;9.40;7.50;;;19.20;99.90;;;;;;4821642;29;20469;-79
2021/07/20 07:12:28;;;;;;;10.70;7.23;;;19.20;99.90;;;;;;4806570;29;20499;-79
2021/07/20 07:14:54;;;;;;;16.23;9.03;;;19.30;99.90;;;;;;4806324;29;20471;-79
2021/07/20 07:17:21;;;;;;;13.13;8.77;;;19.40;99.90;;;;;;4821263;29;20483;-79
2021/07/20 07:19:51;;;;;;;16.40;9.27;;;19.30;99.90;;;;;;4804829;29;20461;-79
2021/07/20 07:22:22;;;;;;;16.10;10.40;;;19.40;99.90;;;;;;4806575;29;20468;-79
2021/07/20 07:24:51;;;;;;;11.97;8.07;;;19.50;99.90;;;;;;4823155;29;20512;-79
2021/07/20 07:27:37;;;;;;;10.93;7.30;;;19.60;99.90;;;;;;4817227;29;20471;-78
2021/07/20 07:30:04;;;;;;;11.33;7.97;;;19.60;99.90;;;;;;4821903;29;20457;-79
2021/07/20 07:32:30;;;;;;;11.97;7.80;;;19.60;99.90;;;;;;4823329;29;20612;-79
2021/07/20 07:34:56;;;;;;;11.67;7.60;;;19.60;99.90;;;;;;4824896;29;20480;-79
2021/07/20 07:37:25;;;;;;;10.07;7.33;;;19.70;99.90;;;;;;4825664;29;21004;-79
2021/07/20 07:39:53;;;;;;;13.27;9.40;;;19.80;99.90;;;;;;4783277;29;20227;-79
2021/07/20 07:42:21;;;;;;;13.10;7.53;;;19.80;99.90;;;;;;4807063;29;21104;-79
2021/07/20 07:44:49;;;;;;;10.20;7.37;;;19.80;99.90;;;;;;4811407;29;20547;-78
2021/07/20 07:47:15;;;;;;;10.30;8.07;;;19.80;99.90;;;;;;4825383;29;21118;-79
2021/07/20 07:49:43;;;;;;;12.50;8.60;;;19.90;99.90;;;;;;4820174;29;21284;-79
2021/07/20 07:52:11;;;;;;;11.33;8.40;;;20.00;99.90;;;;;;4813859;29;20459;-79
2021/07/20 07:54:37;;;;;;;10.87;7.97;;;20.00;99.90;;;;;;4833266;29;20463;-78
2021/07/20 07:57:03;;;;;;;12.20;7.97;;;20.00;99.90;;;;;;4828907;29;20520;-79
2021/07/20 07:59:32;;;;;;;11.40;7.87;;;20.10;99.90;;;;;;4829658;29;20464;-79
2021/07/20 08:02:02;;;;;;;13.17;8.37;;;20.10;99.90;;;;;;4827660;29;20476;-79
2021/07/20 08:04:28;;;;;;;12.13;7.33;;;20.20;99.90;;;;;;4814264;29;21054;-79
2021/07/20 08:06:56;;;;;;;10.97;8.20;;;20.20;99.90;;;;;;4827862;29;20468;-79
2021/07/20 08:09:32;;;;;;;9.20;7.40;;;20.30;99.90;;;;;;4798959;29;20238;-78
2021/07/20 08:12:02;;;;;;;11.23;8.10;;;20.40;99.90;;;;;;4812317;29;21002;-79
2021/07/20 08:14:29;;;;;;;15.37;9.40;;;20.40;99.90;;;;;;4828214;29;20472;-79
2021/07/20 08:16:59;;;;;;;10.40;7.90;;;20.50;99.90;;;;;;4828557;29;20985;-79
2021/07/20 08:19:31;;;;;;;12.37;8.53;;;20.50;99.90;;;;;;4828986;29;20468;-78
2021/07/20 08:22:01;;;;;;;10.60;8.00;;;20.60;99.90;;;;;;4804344;29;20472;-77
2021/07/20 08:24:29;;;;;;;12.30;8.30;;;20.60;99.90;;;;;;4814134;29;20479;-79
2021/07/20 08:27:13;;;;;;;13.97;8.37;;;20.60;99.90;;;;;;4811328;29;20966;-77
2021/07/20 08:29:40;;;;;;;11.37;7.80;;;20.60;99.90;;;;;;4828971;29;20464;-79
2021/07/20 08:32:12;;;;;;;10.13;8.70;;;20.60;99.90;;;;;;4828306;29;20472;-78
2021/07/20 08:34:57;;;;;;;10.37;7.40;;;20.60;99.90;;;;;;4828081;29;20472;-79
2021/07/20 08:37:24;;;;;;;9.93;7.03;;;20.60;99.90;;;;;;4798067;29;20856;-79
2021/07/20 08:40:07;;;;;;;14.83;8.20;;;20.60;99.90;;;;;;4815370;29;20536;-79
2021/07/20 08:43:17;;;;;;;11.73;7.77;;;20.60;99.90;;;;;;4825058;29;20472;-79
2021/07/20 08:46:16;;;;;;;12.70;8.57;;;20.60;99.90;;;;;;4807659;29;20479;-78
2021/07/20 08:49:21;;;;;;;12.00;7.47;;;20.60;99.90;;;;;;4808803;29;20468;-79
2021/07/20 08:51:50;;;;;;;9.27;7.33;;;20.60;99.90;;;;;;4811653;29;20499;-78
2021/07/20 08:54:25;;;;;;;9.67;7.20;;;20.70;99.90;;;;;;4807999;29;20504;-79
2021/07/20 08:56:52;;;;;;;10.73;7.40;;;20.80;99.90;;;;;;4801637;29;20483;-79
2021/07/20 08:59:24;;;;;;;9.30;6.90;;;20.80;99.90;;;;;;4795420;29;20483;-78
2021/07/20 09:02:07;;;;;;;10.13;7.07;;;20.80;99.90;;;;;;4811508;29;20511;-79
2021/07/20 09:04:38;;;;;;;9.73;6.90;;;20.80;99.90;;;;;;4812787;29;20485;-78
2021/07/20 09:07:10;;;;;;;9.37;6.70;;;20.80;99.90;;;;;;4796458;29;20480;-79
2021/07/20 09:09:40;;;;;;;9.80;6.80;;;20.90;99.90;;;;;;4797953;29;20459;-79
2021/07/20 09:12:24;;;;;;;8.50;7.07;;;20.90;99.90;;;;;;4827802;29;20464;-79
2021/07/20 09:15:00;;;;;;;10.93;7.00;;;20.90;99.90;;;;;;4827983;29;20472;-79
2021/07/20 09:17:41;;;;;;;9.90;7.47;;;20.90;99.90;;;;;;4825615;29;20479;-79
2021/07/20 09:20:07;;;;;;;8.90;6.40;;;20.90;99.90;;;;;;4826028;29;20471;-78
2021/07/20 09:22:54;;;;;;;11.37;8.37;;;21.00;99.90;;;;;;4814334;29;20487;-78
2021/07/20 09:25:52;;;;;;;9.80;7.00;;;21.00;99.90;;;;;;4794583;29;20500;-78
2021/07/20 09:28:21;;;;;;;8.40;6.43;;;21.10;99.90;;;;;;4822156;29;20487;-78
2021/07/20 09:30:50;;;;;;;9.97;7.87;;;21.10;99.90;;;;;;4821042;29;20476;-78
2021/07/20 09:33:20;;;;;;;10.10;6.87;;;21.00;99.90;;;;;;4809031;29;20499;-78
2021/07/20 09:36:10;;;;;;;9.87;7.43;;;21.10;99.90;;;;;;4800861;29;20910;-78
2021/07/20 09:38:45;;;;;;;8.90;6.90;;;21.10;99.90;;;;;;4806559;29;20476;-78
2021/07/20 09:41:26;;;;;;;13.63;6.93;;;21.10;99.90;;;;;;4809145;29;20463;-78
2021/07/20 09:43:54;;;;;;;8.63;6.80;;;21.20;99.90;;;;;;4814241;29;20461;-76
2021/07/20 09:46:45;;;;;;;10.47;6.60;;;21.20;99.90;;;;;;4802310;29;20481;-77
2021/07/20 09:49:27;;;;;;;9.80;7.20;;;21.20;99.90;;;;;;4793402;29;20514;-78
2021/07/20 09:52:34;;;;;;;8.03;5.80;;;21.10;99.90;;;;;;4806662;29;20473;-78
2021/07/20 09:55:19;;;;;;;10.10;7.07;;;21.20;99.90;;;;;;4820200;29;20460;-81
2021/07/20 09:57:50;;;;;;;8.90;6.40;;;21.30;99.90;;;;;;4811671;29;20464;-78
2021/07/20 10:00:28;;;;;;;9.90;7.37;;;21.30;99.90;;;;;;4822117;29;20464;-78
2021/07/20 10:03:15;;;;;;;8.17;6.30;;;21.40;99.90;;;;;;4815661;29;20494;-78
2021/07/20 10:05:48;;;;;;;6.73;5.90;;;21.50;99.90;;;;;;4825283;29;20499;-78
2021/07/20 10:08:29;;;;;;;7.00;5.40;;;21.60;99.90;;;;;;4824064;29;20479;-78
2021/07/20 10:11:13;;;;;;;7.63;5.23;;;21.60;99.90;;;;;;4807790;29;20468;-80
2021/07/20 10:14:08;;;;;;;6.80;5.80;;;21.80;99.90;;;;;;4806769;29;20472;-80
2021/07/20 10:16:50;;;;;;;8.77;6.53;;;21.90;99.90;;;;;;4806310;29;20564;-78
2021/07/20 10:19:34;;;;;;;11.60;7.30;;;21.90;99.90;;;;;;4809052;29;20462;-78
2021/07/20 10:22:03;;;;;;;7.90;6.00;;;22.00;99.90;;;;;;4824453;29;20484;-78
2021/07/20 10:24:32;;;;;;;8.87;6.00;;;22.10;99.90;;;;;;4824617;29;20572;-78
2021/07/20 10:27:01;;;;;;;7.70;6.60;;;22.20;99.90;;;;;;4791950;29;20543;-78
2021/07/20 10:29:41;;;;;;;9.37;7.00;;;22.20;99.90;;;;;;4816551;29;20460;-77
2021/07/20 10:32:23;;;;;;;9.33;6.57;;;22.30;99.90;;;;;;4823794;29;20528;-79
2021/07/20 10:35:00;;;;;;;7.27;5.93;;;22.40;99.90;;;;;;4824277;29;20464;-78
2021/07/20 10:37:36;;;;;;;8.73;6.27;;;22.50;99.90;;;;;;4806175;29;20519;-78
2021/07/20 10:40:15;;;;;;;8.37;6.60;;;22.40;99.90;;;;;;4778942;29;20870;-78
2021/07/20 10:43:15;;;;;;;8.97;5.90;;;22.50;99.90;;;;;;4816599;29;20569;-79
2021/07/20 10:45:44;;;;;;;9.40;6.20;;;22.60;99.90;;;;;;4808006;29;20993;-78
2021/07/20 10:48:13;;;;;;;8.67;6.30;;;22.80;99.90;;;;;;4820437;29;20459;-78
2021/07/20 10:50:54;;;;;;;7.33;6.17;;;22.90;99.90;;;;;;4808053;29;20472;-78
2021/07/20 10:53:22;;;;;;;7.90;6.17;;;22.90;99.10;;;;;;4804846;29;20519;-78
2021/07/20 10:56:16;;;;;;;7.70;6.03;;;23.00;99.90;;;;;;4823257;29;20468;-79
2021/07/20 10:58:53;;;;;;;9.90;6.60;;;23.10;99.90;;;;;;4809066;29;20548;-79
2021/07/20 11:01:26;;;;;;;10.03;6.17;;;23.00;99.40;;;;;;4823874;29;20532;-78
2021/07/20 11:04:30;;;;;;;7.30;5.77;;;23.10;99.70;;;;;;4838114;29;20788;-78
2021/07/20 11:06:56;;;;;;;8.30;6.10;;;23.10;99.90;;;;;;4801018;29;20457;-77
2021/07/20 11:09:26;;;;;;;6.60;5.47;;;23.20;99.30;;;;;;4824930;29;20460;-78
2021/07/20 11:11:59;;;;;;;7.40;6.60;;;23.40;99.90;;;;;;4811531;29;20471;-79
2021/07/20 11:14:30;;;;;;;9.43;7.00;;;23.50;99.50;;;;;;4781479;29;20840;-78
2021/07/20 11:16:59;;;;;;;6.00;5.33;;;23.60;99.00;;;;;;4801831;29;20471;-78
2021/07/20 11:19:26;;;;;;;8.03;6.10;;;23.70;99.50;;;;;;4818465;29;20460;-78
2021/07/20 11:21:55;;;;;;;7.03;5.67;;;23.80;99.60;;;;;;4823848;29;20472;-78
2021/07/20 11:24:23;;;;;;;8.40;5.90;;;23.90;98.50;;;;;;4819718;29;20824;-78
2021/07/20 11:26:49;;;;;;;7.83;6.30;;;24.00;99.40;;;;;;4789097;29;20461;-78
2021/07/20 11:29:16;;;;;;;8.80;7.23;;;23.90;97.80;;;;;;4807393;29;20463;-78
2021/07/20 11:31:48;;;;;;;7.20;6.50;;;24.00;99.00;;;;;;4820874;29;20511;-78
2021/07/20 11:34:28;;;;;;;7.17;5.80;;;24.20;99.00;;;;;;4794705;29;20463;-78
2021/07/20 11:37:00;;;;;;;8.00;6.20;;;24.30;99.20;;;;;;4804474;29;20519;-78
2021/07/20 11:39:31;;;;;;;6.87;6.10;;;24.50;99.20;;;;;;4822095;29;20502;-78
2021/07/20 11:42:09;;;;;;;9.37;6.27;;;24.60;98.30;;;;;;4806204;29;20596;-78
2021/07/20 11:44:54;;;;;;;7.33;6.20;;;24.50;98.20;;;;;;4820882;29;20611;-78
2021/07/20 11:47:40;;;;;;;11.90;6.80;;;24.40;97.80;;;;;;4813475;29;20463;-78
2021/07/20 11:50:12;;;;;;;9.50;6.83;;;24.30;97.70;;;;;;4814474;29;20475;-79
2021/07/20 11:52:46;;;;;;;8.47;6.60;;;24.20;97.40;;;;;;4808000;29;20489;-79
2021/07/20 11:55:40;;;;;;;9.83;6.33;;;24.30;98.10;;;;;;4822400;29;20471;-79
2021/07/20 11:58:43;;;;;;;9.57;7.27;;;24.60;98.10;;;;;;4821887;29;20471;-79
2021/07/20 12:01:14;;;;;;;10.10;6.97;;;24.40;96.80;;;;;;4817390;29;20474;-79
2021/07/20 12:04:18;;;;;;;8.93;6.50;;;24.40;97.20;;;;;;4800554;29;20480;-79
2021/07/20 12:07:11;;;;;;;7.57;6.40;;;24.50;97.20;;;;;;4805628;29;20476;-79
2021/07/20 12:09:59;;;;;;;7.23;6.40;;;24.40;96.30;;;;;;4802596;29;20459;-79
2021/07/20 12:12:45;;;;;;;7.83;6.63;;;24.40;96.40;;;;;;4834187;29;20529;-78
2021/07/20 12:15:13;;;;;;;6.97;5.80;;;24.40;97.10;;;;;;4826069;29;20445;-79
2021/07/20 12:17:45;;;;;;;9.87;6.47;;;24.50;97.00;;;;;;4820758;29;20464;-79
2021/07/20 12:20:14;;;;;;;9.50;7.30;;;24.70;97.10;;;;;;4820208;29;20471;-79
2021/07/20 12:22:44;;;;;;;7.17;6.33;;;24.60;96.50;;;;;;4820617;29;20487;-79
2021/07/20 12:25:10;;;;;;;9.20;6.53;;;24.70;97.20;;;;;;4826721;29;20972;-79
2021/07/20 12:27:38;;;;;;;7.00;6.27;;;24.60;96.20;;;;;;4817627;29;20486;-79
2021/07/20 12:30:10;;;;;;;8.70;7.80;;;24.80;97.20;;;;;;4824952;29;20471;-79
2021/07/20 12:32:38;;;;;;;7.13;6.40;;;25.00;97.10;;;;;;4835902;29;20556;-79
2021/07/20 12:35:06;;;;;;;8.47;6.43;;;25.00;96.20;;;;;;4819807;29;20468;-79
2021/07/20 12:37:32;;;;;;;36.07;21.73;;;25.00;96.60;;;;;;4835099;29;20479;-78
2021/07/20 12:39:59;;;;;;;9.27;6.83;;;25.20;97.40;;;;;;4834596;29;20464;-79
2021/07/20 12:42:42;;;;;;;9.07;6.93;;;25.30;96.60;;;;;;4835745;29;20317;-79
2021/07/20 12:45:13;;;;;;;7.13;6.03;;;25.30;95.90;;;;;;4821242;29;21104;-79
2021/07/20 12:47:45;;;;;;;7.97;7.00;;;25.20;95.90;;;;;;4820459;29;20487;-79
2021/07/20 12:50:16;;;;;;;7.73;6.43;;;25.20;95.90;;;;;;4834641;29;21028;-79
2021/07/20 12:52:44;;;;;;;8.13;6.70;;;25.20;96.10;;;;;;4835361;29;20472;-79
2021/07/20 12:55:12;;;;;;;7.03;6.33;;;25.30;96.20;;;;;;4829996;29;20453;-79
2021/07/20 12:57:43;;;;;;;6.73;5.80;;;25.50;96.40;;;;;;4820946;29;20456;-78
2021/07/20 13:00:10;;;;;;;7.83;5.73;;;25.50;95.80;;;;;;4848226;29;20460;-79
2021/07/20 13:02:38;;;;;;;10.90;7.10;;;25.30;95.60;;;;;;4820052;29;20483;-80
2021/07/20 13:05:06;;;;;;;8.23;5.70;;;25.30;95.70;;;;;;4835246;29;21127;-79
2021/07/20 13:07:34;;;;;;;7.80;6.40;;;25.50;96.20;;;;;;4836240;29;20475;-79
2021/07/20 13:10:05;;;;;;;9.27;6.97;;;25.60;96.20;;;;;;4818449;29;20551;-79
2021/07/20 13:12:31;;;;;;;10.33;6.30;;;25.90;96.10;;;;;;4821725;29;20475;-79